Time;durP1;ratioP1;P1;durP2;ratioP2;P2;SDS_P1;SDS_P2;PMS_P1;PMS_P2;Temp;Humidity;BMP_temperature;BMP_pressure;BME280_temperature;BME280_humidity;BME280_pressure;Samples;Min_cycle;Max_cycle;Signal;HPM_P1;HPM_P2
2022/12/17 13:08:07;;;;;;;;;61.50;44.50;;;;;1.46;67.05;102121.63;4974941;28;45306;-57
2022/12/17 13:10:34;;;;;;;;;44.75;39.50;;;;;1.36;67.29;102105.38;4975018;28;45234;-60
2022/12/17 13:13:24;;;;;;;;;56.25;41.00;;;;;1.45;67.45;102119.91;4975442;28;45174;-47
2022/12/17 13:15:54;;;;;;;;;51.50;40.50;;;;;1.46;67.19;102117.22;4974889;28;45452;-55
2022/12/17 13:18:19;;;;;;;;;50.75;40.75;;;;;1.49;66.95;102116.28;4974891;28;45589;-55
2022/12/17 13:20:58;;;;;;;;;61.50;44.50;;;;;1.33;67.10;102095.00;4974919;28;45275;-57
2022/12/17 13:23:35;;;;;;;;;40.75;34.00;;;;;1.33;67.11;102108.09;4975277;28;45476;-54
2022/12/17 13:26:16;;;;;;;;;44.50;39.50;;;;;1.28;66.67;102117.03;4974797;28;45687;-51
2022/12/17 13:28:47;;;;;;;;;47.25;39.75;;;;;1.23;66.60;102119.81;4974685;28;45471;-58
2022/12/17 13:31:20;;;;;;;;;62.00;43.75;;;;;1.12;66.97;102096.59;4974782;28;45285;-54
2022/12/17 13:34:08;;;;;;;;;45.25;38.50;;;;;1.13;67.31;102110.53;4974931;28;45317;-50
2022/12/17 13:36:44;;;;;;;;;38.75;32.50;;;;;1.12;67.07;102103.59;4974577;28;46112;-51
2022/12/17 13:39:54;;;;;;;;;48.00;39.75;;;;;1.07;66.88;102108.16;4974829;28;45391;-50
2022/12/17 13:42:28;;;;;;;;;51.50;38.25;;;;;1.05;67.06;102105.56;4973767;28;45467;-52
2022/12/17 13:44:55;;;;;;;;;54.50;31.00;;;;;0.96;66.72;102091.00;4974958;28;45340;-56
2022/12/17 13:47:24;;;;;;;;;58.75;44.75;;;;;1.06;67.06;102112.53;4974132;28;46267;-47
2022/12/17 13:49:54;;;;;;;;;51.75;40.00;;;;;0.97;67.03;102100.59;4974461;28;45227;-56
2022/12/17 13:52:24;;;;;;;;;47.00;35.50;;;;;1.07;66.67;102109.00;4974788;28;45258;-49
2022/12/17 13:54:49;;;;;;;;;54.50;40.00;;;;;1.06;67.30;102112.53;4974519;28;45401;-51
2022/12/17 13:57:21;;;;;;;;;48.25;38.50;;;;;1.06;67.23;102107.28;4974311;28;45378;-50
2022/12/17 13:59:55;;;;;;;;;47.50;41.00;;;;;1.03;67.17;102096.06;4974463;28;45497;-55
2022/12/17 14:02:25;;;;;;;;;47.50;34.50;;;;;1.09;66.75;102103.69;4974449;28;45440;-53
2022/12/17 14:04:52;;;;;;;;;42.25;32.75;;;;;1.07;66.52;102097.66;4976320;28;45287;-51
2022/12/17 14:07:18;;;;;;;;;47.75;30.75;;;;;1.05;65.89;102099.47;4977060;28;45994;-55
2022/12/17 14:09:44;;;;;;;;;37.00;25.75;;;;;1.11;65.94;102112.38;4977108;28;45509;-44
2022/12/17 14:12:20;;;;;;;;;44.25;30.00;;;;;1.14;65.41;102105.28;4975866;28;45400;-45
2022/12/17 14:14:50;;;;;;;;;42.50;31.50;;;;;1.18;65.36;102106.00;4977533;28;45273;-53
2022/12/17 14:17:21;;;;;;;;;30.50;29.50;;;;;1.01;65.38;102083.00;4976778;28;45248;-54
2022/12/17 14:20:03;;;;;;;;;59.50;35.00;;;;;1.18;65.17;102112.13;4976888;28;45445;-44
2022/12/17 14:22:32;;;;;;;;;45.50;37.25;;;;;1.19;65.11;102111.22;4977100;28;45325;-45
2022/12/17 14:24:59;;;;;;;;;39.75;32.00;;;;;1.20;65.23;102104.19;4977389;28;45297;-52
2022/12/17 14:27:53;;;;;;;;;39.50;32.00;;;;;1.21;64.90;102106.75;4976882;28;45324;-52
2022/12/17 14:30:23;;;;;;;;;37.25;32.00;;;;;1.23;65.11;102112.81;4977039;28;45407;-53
2022/12/17 14:32:49;;;;;;;;;41.75;30.75;;;;;1.25;64.97;102118.00;4976994;28;45309;-46
2022/12/17 14:35:25;;;;;;;;;44.00;28.75;;;;;1.24;64.89;102117.13;4977022;28;45358;-53
2022/12/17 14:37:50;;;;;;;;;34.50;27.75;;;;;1.24;65.10;102122.38;4976893;28;45336;-46
2022/12/17 14:40:16;;;;;;;;;51.00;33.50;;;;;1.23;64.90;102123.28;4976749;28;45419;-45
2022/12/17 14:42:41;;;;;;;;;33.50;28.75;;;;;1.22;64.71;102112.84;4976923;28;45914;-45
2022/12/17 14:45:27;;;;;;;;;39.25;33.00;;;;;1.20;64.71;102119.91;4977094;28;45378;-46
2022/12/17 14:47:54;;;;;;;;;37.75;30.75;;;;;1.18;64.56;102113.84;4976471;28;46102;-45
2022/12/17 14:50:20;;;;;;;;;33.50;24.75;;;;;1.18;64.86;102133.09;4976888;28;45529;-50
2022/12/17 14:52:47;;;;;;;;;39.25;29.75;;;;;1.18;64.61;102135.72;4976911;28;45387;-44
2022/12/17 14:55:50;;;;;;;;;40.00;32.50;;;;;1.17;65.15;102120.03;4977013;28;45412;-47
2022/12/17 14:58:19;;;;;;;;;43.25;33.00;;;;;1.16;64.61;102120.94;4976697;28;46340;-46
2022/12/17 15:00:54;;;;;;;;;40.25;27.50;;;;;1.15;65.00;102111.38;4976642;28;45298;-51
2022/12/17 15:03:26;;;;;;;;;42.50;36.00;;;;;1.12;64.66;102109.69;4976683;28;45453;-53
2022/12/17 15:05:59;;;;;;;;;39.75;27.00;;;;;1.09;64.54;102103.69;4977092;28;45257;-45
2022/12/17 15:08:26;;;;;;;;;56.75;32.00;;;;;1.08;64.64;102109.84;4976410;28;46768;-46
2022/12/17 15:10:51;;;;;;;;;47.00;33.00;;;;;1.05;65.05;102116.03;4975296;28;45553;-50
2022/12/17 15:13:17;;;;;;;;;35.25;31.75;;;;;1.03;65.17;102115.25;4976564;28;45259;-47
2022/12/17 15:15:42;;;;;;;;;42.25;27.75;;;;;1.01;65.13;102122.28;4975993;28;45325;-46
2022/12/17 15:18:10;;;;;;;;;33.50;29.50;;;;;0.97;65.34;102102.38;4976214;28;46137;-44
2022/12/17 15:20:36;;;;;;;;;55.75;32.00;;;;;0.93;64.89;102116.47;4976318;28;45358;-45
2022/12/17 15:23:01;;;;;;;;;47.00;39.00;;;;;0.92;65.25;102117.38;4976382;28;45398;-47
2022/12/17 15:25:27;;;;;;;;;47.25;33.00;;;;;0.90;65.20;102114.81;4976508;28;45370;-51
2022/12/17 15:27:52;;;;;;;;;35.25;32.50;;;;;0.93;65.04;102109.47;4976149;28;45315;-47
2022/12/17 15:30:18;;;;;;;;;42.25;34.75;;;;;0.51;65.19;102064.59;4975064;28;45475;-44
2022/12/17 15:32:44;;;;;;;;;44.00;32.00;;;;;0.79;65.05;102082.00;4976259;28;45509;-46
2022/12/17 15:35:11;;;;;;;;;41.25;23.50;;;;;0.92;65.16;102114.75;4976523;28;45233;-45
2022/12/17 15:37:36;;;;;;;;;42.00;31.00;;;;;0.90;65.31;102120.06;4976144;28;46073;-46
2022/12/17 15:40:03;;;;;;;;;43.75;33.25;;;;;0.91;65.35;102124.38;4976538;28;45179;-55
2022/12/17 15:45:12;;;;;;;;;52.75;30.50;;;;;0.89;65.05;102122.72;4976501;28;45429;-46
2022/12/17 15:47:38;;;;;;;;;44.00;37.00;;;;;0.88;65.66;102118.38;4975825;28;46051;-50
2022/12/17 15:50:04;;;;;;;;;43.25;30.00;;;;;0.86;65.21;102122.81;4976394;28;45343;-46
2022/12/17 15:52:29;;;;;;;;;34.00;31.75;;;;;0.85;65.44;102128.97;4976251;28;45423;-53
2022/12/17 15:54:54;;;;;;;;;42.50;34.75;;;;;0.83;65.23;102134.25;4976183;28;45436;-45
2022/12/17 15:57:20;;;;;;;;;38.75;31.75;;;;;0.81;65.66;102137.84;4976093;28;45370;-44
2022/12/17 15:59:45;;;;;;;;;38.50;33.25;;;;;0.75;65.61;102142.34;4975926;28;45373;-47
2022/12/17 16:02:10;;;;;;;;;42.25;35.25;;;;;0.75;65.63;102150.22;4976223;28;45580;-46
2022/12/17 16:04:36;;;;;;;;;39.25;31.50;;;;;0.75;65.49;102152.81;4976483;28;45430;-44
2022/12/17 16:07:03;;;;;;;;;51.50;34.25;;;;;0.73;65.58;102149.41;4976136;28;45424;-49
2022/12/17 16:09:28;;;;;;;;;33.50;26.50;;;;;0.73;65.64;102151.19;4975768;28;45434;-45
2022/12/17 16:11:54;;;;;;;;;45.50;31.50;;;;;0.71;65.16;102163.44;4976287;28;45506;-45
2022/12/17 16:14:21;;;;;;;;;37.25;28.00;;;;;0.67;65.04;102146.97;4976723;28;45263;-49
2022/12/17 16:16:47;;;;;;;;;43.25;30.00;;;;;0.63;64.81;102142.78;4976334;28;45335;-46
2022/12/17 16:19:12;;;;;;;;;38.75;33.25;;;;;0.62;65.40;102148.88;4975943;28;45278;-45
2022/12/17 16:21:37;;;;;;;;;40.50;33.50;;;;;0.62;64.72;102158.50;4975620;28;45347;-48
2022/12/17 16:24:03;;;;;;;;;40.75;30.25;;;;;0.59;65.04;102151.63;4975897;28;45536;-45
2022/12/17 16:26:28;;;;;;;;;34.50;30.25;;;;;0.55;64.78;102152.63;4975264;28;47147;-47
2022/12/17 16:28:56;;;;;;;;;31.00;24.75;;;;;0.56;65.42;102143.84;4975222;28;45807;-55
2022/12/17 16:31:21;;;;;;;;;42.25;30.00;;;;;0.55;65.49;102144.78;4976482;28;45371;-56
2022/12/17 16:33:47;;;;;;;;;40.25;34.00;;;;;0.56;65.03;102143.84;4975945;28;45294;-51
2022/12/17 16:36:14;;;;;;;;;48.75;37.75;;;;;0.55;65.53;102150.00;4975437;28;47158;-52
2022/12/17 16:38:48;;;;;;;;;38.50;31.25;;;;;0.53;65.33;102138.72;4975530;28;45252;-58
2022/12/17 16:41:14;;;;;;;;;45.25;26.75;;;;;0.48;65.23;102140.63;4975489;28;45407;-54
2022/12/17 16:43:40;;;;;;;;;43.00;32.50;;;;;0.42;65.17;102148.66;4975753;28;45223;-56
2022/12/17 16:46:23;;;;;;;;;46.00;36.75;;;;;0.42;65.40;102164.34;4975319;28;45407;-52
2022/12/17 16:48:48;;;;;;;;;40.25;29.00;;;;;0.41;64.98;102160.03;4975046;28;45279;-47
2022/12/17 16:51:19;;;;;;;;;40.00;32.00;;;;;0.37;65.37;102151.41;4975283;28;45211;-48
2022/12/17 16:53:45;;;;;;;;;39.25;28.50;;;;;0.34;65.30;102148.91;4975628;28;45404;-47
2022/12/17 16:56:19;;;;;;;;;39.75;30.25;;;;;0.29;65.25;102140.31;4975313;28;46110;-46
2022/12/17 16:58:45;;;;;;;;;30.50;27.75;;;;;0.24;65.56;102129.13;4975287;28;45433;-44
2022/12/17 17:01:11;;;;;;;;;48.00;30.25;;;;;0.23;65.27;102135.28;4975280;28;45370;-45
2022/12/17 17:03:40;;;;;;;;;32.25;27.75;;;;;0.22;65.74;102144.03;4975251;28;45464;-45
2022/12/17 17:06:07;;;;;;;;;48.25;26.50;;;;;0.19;65.42;102137.13;4974967;28;47290;-45
2022/12/17 17:08:34;;;;;;;;;47.00;33.00;;;;;0.04;65.44;102113.16;4975049;28;45474;-45
2022/12/17 17:11:27;;;;;;;;;36.50;30.00;;;;;0.18;66.22;102143.28;4975323;28;45351;-44
2022/12/17 17:13:53;;;;;;;;;47.50;31.75;;;;;0.19;65.88;102147.59;4974337;28;45587;-49
2022/12/17 17:16:20;;;;;;;;;52.00;41.25;;;;;0.17;65.80;102152.03;4974885;28;47237;-46
2022/12/17 17:18:46;;;;;;;;;49.50;36.00;;;;;0.16;66.16;102141.59;4974838;28;45502;-44
2022/12/17 17:21:13;;;;;;;;;39.25;32.00;;;;;0.12;65.75;102138.19;4975342;28;45439;-46
2022/12/17 17:23:39;;;;;;;;;42.75;33.00;;;;;0.09;66.02;102140.06;4974966;28;45483;-43
2022/12/17 17:26:05;;;;;;;;;47.75;39.00;;;;;0.01;66.42;102147.28;4974920;28;45430;-46
2022/12/17 17:28:30;;;;;;;;;44.00;34.50;;;;;0.01;66.51;102156.00;4974753;28;45465;-43
2022/12/17 17:31:00;;;;;;;;;44.50;38.50;;;;;-0.02;66.54;102146.47;4974941;28;45350;-44
2022/12/17 17:33:34;;;;;;;;;44.75;32.75;;;;;-0.04;66.32;102148.28;4975147;28;45398;-44
2022/12/17 17:36:09;;;;;;;;;51.75;36.00;;;;;-0.07;66.07;102148.38;4974592;28;46066;-45
2022/12/17 17:38:36;;;;;;;;;67.75;39.25;;;;;-0.09;66.20;102157.16;4974079;28;45328;-44
2022/12/17 17:41:03;;;;;;;;;61.00;40.50;;;;;-0.14;67.12;102161.66;4974705;28;45350;-45
2022/12/17 17:43:29;;;;;;;;;47.25;37.00;;;;;-0.13;67.29;102166.81;4973814;28;45202;-47
2022/12/17 17:45:57;;;;;;;;;54.75;38.50;;;;;-0.12;67.13;102163.34;4974475;28;45242;-53
2022/12/17 17:48:22;;;;;;;;;42.00;31.00;;;;;-0.11;67.22;102172.88;4973991;28;45230;-52
2022/12/17 17:50:59;;;;;;;;;48.00;37.00;;;;;-0.11;67.58;102172.88;4974665;28;45386;-51
2022/12/17 17:53:24;;;;;;;;;42.50;33.75;;;;;-0.12;66.87;102170.34;4974556;28;45437;-57
2022/12/17 17:55:50;;;;;;;;;45.75;36.25;;;;;-0.15;66.85;102158.19;4974310;28;47015;-55
2022/12/17 17:58:15;;;;;;;;;54.50;39.25;;;;;-0.28;66.87;102128.91;4974400;28;45244;-45
2022/12/17 18:00:40;;;;;;;;;44.25;34.00;;;;;-0.15;67.44;102166.03;4974437;28;45252;-46
2022/12/17 18:03:06;;;;;;;;;57.25;37.25;;;;;-0.15;66.77;102157.34;4974514;28;45263;-45
2022/12/17 18:05:36;;;;;;;;;54.25;39.75;;;;;-0.15;67.16;102152.09;4973947;28;46243;-46
2022/12/17 18:08:02;;;;;;;;;59.50;39.00;;;;;-0.16;67.33;102153.00;4974243;28;45257;-46
2022/12/17 18:10:27;;;;;;;;;40.00;34.50;;;;;-0.17;67.19;102149.53;4974236;28;45398;-48
2022/12/17 18:15:37;;;;;;;;;45.75;26.00;;;;;-0.19;67.36;102142.63;4974050;28;45650;-49
2022/12/17 18:18:03;;;;;;;;;57.75;42.00;;;;;-0.19;67.49;102127.78;4974077;28;45412;-45
2022/12/17 18:20:28;;;;;;;;;55.50;45.00;;;;;-0.18;66.93;102133.88;4974020;28;45344;-42
2022/12/17 18:22:53;;;;;;;;;52.50;39.00;;;;;-0.21;67.16;102131.34;4974279;28;45260;-45
2022/12/17 18:25:19;;;;;;;;;50.00;36.75;;;;;-0.22;68.10;102142.69;4973884;28;45407;-47
2022/12/17 18:27:44;;;;;;;;;55.75;39.75;;;;;-0.22;67.70;102153.16;4974022;27;45444;-45
2022/12/17 18:30:10;;;;;;;;;67.50;45.00;;;;;-0.22;67.88;102155.78;4975543;28;45331;-43
2022/12/17 18:32:35;;;;;;;;;48.75;42.50;;;;;-0.66;68.18;102087.28;4974236;28;45475;-44
2022/12/17 18:35:01;;;;;;;;;37.00;30.50;;;;;-0.19;67.48;102145.25;4973798;28;45920;-46
2022/12/17 18:37:26;;;;;;;;;67.25;48.00;;;;;-0.22;67.43;102145.31;4972346;28;45490;-45
2022/12/17 18:39:51;;;;;;;;;57.00;45.50;;;;;-0.26;67.84;102147.16;4974090;28;45484;-47
2022/12/17 18:45:01;;;;;;;;;40.75;37.00;;;;;-0.32;67.89;102165.66;4973744;28;45719;-45
2022/12/17 18:47:27;;;;;;;;;48.00;43.50;;;;;-0.34;68.48;102170.94;4973593;28;45273;-47
2022/12/17 18:49:53;;;;;;;;;61.67;48.00;;;;;-0.35;68.40;102169.19;4973714;28;45371;-45
2022/12/17 18:52:18;;;;;;;;;57.25;45.00;;;;;-0.33;68.00;102169.16;4976579;28;45465;-45
2022/12/17 18:54:44;;;;;;;;;55.00;44.00;;;;;-0.74;68.13;102102.31;4976852;28;46093;-44
2022/12/17 18:57:09;;;;;;;;;58.25;46.75;;;;;-0.36;67.87;102177.94;4976763;28;45403;-45
2022/12/17 18:59:35;;;;;;;;;62.50;49.25;;;;;-0.46;67.86;102170.38;4976823;28;45377;-44
2022/12/17 19:02:00;;;;;;;;;48.00;45.00;;;;;-0.37;67.89;102184.06;4977066;28;45237;-46
2022/12/17 19:04:26;;;;;;;;;60.00;45.25;;;;;-0.37;67.85;102183.22;4976431;28;45398;-43
2022/12/17 19:06:52;;;;;;;;;53.25;48.25;;;;;-0.38;68.14;102181.47;4976487;28;45276;-46
2022/12/17 19:09:37;;;;;;;;;65.50;45.50;;;;;-0.42;67.96;102191.19;4976609;28;45418;-44
2022/12/17 19:12:07;;;;;;;;;57.25;44.00;;;;;-0.43;67.82;102192.06;4977260;28;45402;-46
2022/12/17 19:14:33;;;;;;;;;58.25;46.50;;;;;-0.43;67.96;102186.84;4976991;28;46525;-46
2022/12/17 19:16:58;;;;;;;;;44.50;41.00;;;;;-0.45;67.26;102188.66;4977333;28;45259;-45
2022/12/17 19:19:24;;;;;;;;;55.75;43.00;;;;;-0.47;67.44;102186.97;4977314;28;45376;-45
2022/12/17 19:21:50;;;;;;;;;52.00;39.50;;;;;-0.50;67.22;102182.69;4976790;28;45425;-45
2022/12/17 19:24:18;;;;;;;;;50.00;42.25;;;;;-0.55;67.19;102181.94;4976281;28;45325;-44
2022/12/17 19:26:44;;;;;;;;;51.50;39.75;;;;;-0.62;67.42;102186.47;4976345;28;45370;-47
2022/12/17 19:29:12;;;;;;;;;50.00;42.50;;;;;-0.57;66.93;102196.81;4975456;28;45399;-44
2022/12/17 19:31:37;;;;;;;;;70.67;48.33;;;;;-0.62;67.19;102190.84;4976477;28;45264;-44
2022/12/17 19:34:05;;;;;;;;;57.75;45.00;;;;;-0.57;67.12;102183.75;4976177;28;45983;-47
2022/12/17 19:36:32;;;;;;;;;57.75;42.50;;;;;-0.63;67.33;102176.94;4976453;28;45356;-45
2022/12/17 19:38:59;;;;;;;;;54.25;38.25;;;;;-0.67;67.15;102183.13;4976162;28;45245;-46
2022/12/17 19:41:27;;;;;;;;;55.00;46.00;;;;;-0.72;67.33;102184.13;4976489;28;45516;-44
2022/12/17 19:43:54;;;;;;;;;60.33;47.33;;;;;-0.73;66.96;102182.41;4976052;28;46053;-44
2022/12/17 19:46:20;;;;;;;;;52.50;36.75;;;;;-0.89;67.07;102161.91;4976113;28;45398;-44
2022/12/17 19:48:47;;;;;;;;;61.25;46.75;;;;;-0.80;67.14;102187.81;4975892;28;45271;-45
2022/12/17 19:51:14;;;;;;;;;50.00;42.25;;;;;-0.78;66.99;102187.75;4976067;28;45469;-46
2022/12/17 19:53:42;;;;;;;;;52.50;43.00;;;;;-0.85;67.14;102189.66;4976072;28;45292;-44
2022/12/17 19:56:10;;;;;;;;;50.75;41.50;;;;;-0.89;67.54;102182.78;4975837;28;45281;-46
2022/12/17 19:58:35;;;;;;;;;61.75;44.25;;;;;-0.91;67.42;102189.81;4975877;28;45217;-50
2022/12/17 20:01:08;;;;;;;;;54.50;42.50;;;;;-0.95;67.80;102177.72;4976432;28;45347;-44
2022/12/17 20:03:34;;;;;;;;;47.75;42.50;;;;;-0.95;67.58;102177.72;4975695;28;45298;-46
2022/12/17 20:06:00;;;;;;;;;61.67;39.33;;;;;-1.07;67.39;102164.97;4975762;28;45227;-46
2022/12/17 20:08:27;;;;;;;;;56.67;42.67;;;;;-1.01;67.27;102188.34;4976025;28;45311;-43
2022/12/17 20:10:52;;;;;;;;;52.33;44.33;;;;;-1.05;67.10;102205.84;4976156;28;45434;-46
2022/12/17 20:13:17;;;;;;;;;67.67;47.33;;;;;-1.07;67.37;102205.00;4975827;28;47292;-47
2022/12/17 20:15:43;;;;;;;;;53.00;37.75;;;;;-1.07;66.87;102210.22;4977457;28;45348;-45
2022/12/17 20:18:08;;;;;;;;;62.00;44.33;;;;;-1.11;67.29;102215.56;4975942;28;45405;-45
2022/12/17 20:20:33;;;;;;;;;52.00;43.33;;;;;-1.10;67.98;102215.50;4976126;28;45369;-45
2022/12/17 20:22:58;;;;;;;;;46.67;43.00;;;;;-1.09;67.84;102211.19;4975663;28;46300;-45
2022/12/17 20:25:24;;;;;;;;;41.00;35.25;;;;;-1.15;67.50;102204.31;4975665;28;46377;-46
2022/12/17 20:27:49;;;;;;;;;48.67;37.67;;;;;-1.17;67.42;102213.97;4974646;28;45370;-45
2022/12/17 20:30:14;;;;;;;;;50.50;39.00;;;;;-1.24;67.80;102214.97;4976023;28;45436;-45
2022/12/17 20:32:40;;;;;;;;;67.67;48.33;;;;;-1.18;67.92;102238.34;4975698;28;45305;-45
2022/12/17 20:35:06;;;;;;;;;57.33;43.67;;;;;-1.26;67.80;102225.47;4975560;28;45596;-46
2022/12/17 20:37:31;;;;;;;;;66.00;43.00;;;;;-1.19;67.87;102230.53;4975922;28;45465;-46
2022/12/17 20:39:57;;;;;;;;;65.00;48.00;;;;;-1.26;67.59;102215.03;4975910;28;45303;-46
2022/12/17 20:42:22;;;;;;;;;48.67;42.00;;;;;-1.22;67.61;102234.09;4974406;28;45440;-45
2022/12/17 20:44:47;;;;;;;;;41.33;37.00;;;;;-1.23;67.69;102232.34;4974259;28;45226;-46
2022/12/17 20:47:13;;;;;;;;;57.33;46.67;;;;;-1.24;68.19;102220.19;4975423;28;45472;-47
2022/12/17 20:49:38;;;;;;;;;51.00;47.00;;;;;-1.31;67.61;102219.50;4975629;28;45425;-49
2022/12/17 20:52:03;;;;;;;;;40.67;32.33;;;;;-1.31;67.58;102231.66;4975408;28;45401;-45
2022/12/17 20:54:29;;;;;;;;;66.67;49.33;;;;;-1.33;68.00;102231.72;4975372;28;45290;-46
2022/12/17 20:56:54;;;;;;;;;60.33;48.67;;;;;-1.33;68.08;102233.47;4975753;28;45418;-43
2022/12/17 20:59:20;;;;;;;;;58.33;46.67;;;;;-1.37;68.10;102237.91;4975485;28;45153;-44
2022/12/17 21:01:46;;;;;;;;;58.67;45.33;;;;;-1.40;68.03;102242.31;4975367;28;46021;-46
2022/12/17 21:04:13;;;;;;;;;61.00;44.33;;;;;-1.40;68.28;102245.78;4975527;28;45352;-49
2022/12/17 21:06:44;;;;;;;;;56.67;42.67;;;;;-1.41;68.11;102236.25;4976596;28;45482;-47
2022/12/17 21:09:10;;;;;;;;;58.67;41.33;;;;;-1.39;68.08;102244.03;4975545;28;45283;-47
2022/12/17 21:11:37;;;;;;;;;55.00;41.67;;;;;-1.44;68.48;102231.09;4974969;28;45349;-46
2022/12/17 21:14:06;;;;;;;;;57.67;46.33;;;;;-1.44;68.27;102245.88;4974178;28;45249;-46
2022/12/17 21:16:31;;;;;;;;;46.67;36.00;;;;;-1.44;68.16;102245.88;4973953;28;45476;-51
2022/12/17 21:18:58;;;;;;;;;55.00;40.67;;;;;-1.47;67.82;102235.53;4975340;28;45473;-51
2022/12/17 21:21:27;;;;;;;;;62.33;40.67;;;;;-1.47;67.90;102235.53;4975062;28;45341;-49
2022/12/17 21:23:52;;;;;;;;;69.00;46.67;;;;;-1.64;68.77;102209.81;4975365;28;45371;-52
2022/12/17 21:26:24;;;;;;;;;64.67;45.00;;;;;-1.50;68.32;102241.66;4975022;28;45354;-54
2022/12/17 21:28:51;;;;;;;;;67.00;47.00;;;;;-1.52;68.33;102239.09;4975180;28;45359;-48
2022/12/17 21:31:21;;;;;;;;;65.67;47.33;;;;;-1.53;68.10;102237.34;4974698;28;45829;-53
2022/12/17 21:33:49;;;;;;;;;52.00;42.33;;;;;-1.53;68.36;102228.69;4974777;28;45424;-52
2022/12/17 21:36:17;;;;;;;;;57.33;45.00;;;;;-1.57;68.48;102229.63;4974946;28;45476;-51
2022/12/17 21:38:43;;;;;;;;;48.33;42.00;;;;;-1.58;68.43;102227.91;4973595;28;45415;-55
2022/12/17 21:41:14;;;;;;;;;50.67;42.33;;;;;-1.66;68.54;102222.88;4974523;28;47149;-56
2022/12/17 21:43:40;;;;;;;;;57.33;45.00;;;;;-1.65;68.71;102221.09;4976433;28;45185;-53
2022/12/17 21:46:08;;;;;;;;;69.00;48.00;;;;;-1.63;68.52;102227.16;4973446;28;45248;-49
2022/12/17 21:48:35;;;;;;;;;51.00;45.00;;;;;-1.71;68.15;102218.63;4974704;28;45375;-46
2022/12/17 21:51:07;;;;;;;;;59.67;51.33;;;;;-1.72;68.69;102219.53;4974432;28;46438;-51
2022/12/17 21:53:33;;;;;;;;;80.33;54.67;;;;;-1.73;68.50;102225.63;4974592;28;45392;-53
2022/12/17 21:56:08;;;;;;;;;60.67;48.33;;;;;-1.81;68.85;102211.00;4974744;28;45369;-49
2022/12/17 21:58:33;;;;;;;;;68.33;46.00;;;;;-1.92;68.96;102192.09;4974916;28;45336;-48
2022/12/17 22:01:12;;;;;;;;;68.67;52.67;;;;;-1.82;69.13;102206.66;4974384;28;47288;-46
2022/12/17 22:03:38;;;;;;;;;62.67;49.00;;;;;-1.88;69.21;102198.13;4974315;28;45300;-51
2022/12/17 22:06:13;;;;;;;;;67.67;52.00;;;;;-1.94;69.10;102200.84;4974397;28;45540;-46
2022/12/17 22:08:40;;;;;;;;;60.67;43.67;;;;;-1.91;69.15;102195.56;4974684;28;45399;-47
2022/12/17 22:11:14;;;;;;;;;78.67;53.33;;;;;-1.90;68.91;102179.88;4974062;28;46015;-47
2022/12/17 22:16:25;;;;;;;;;68.33;51.33;;;;;-2.01;69.35;102197.50;4974650;28;45247;-46
2022/12/17 22:18:51;;;;;;;;;51.33;40.67;;;;;-2.16;69.19;102167.38;4974542;28;45506;-46
2022/12/17 22:21:17;;;;;;;;;59.33;34.67;;;;;-2.02;69.36;102188.84;4973956;28;47049;-46
2022/12/17 22:23:46;;;;;;;;;74.67;51.67;;;;;-2.10;69.29;102162.06;4974149;28;45315;-46
2022/12/17 22:26:11;;;;;;;;;39.67;33.33;;;;;-2.00;69.21;102180.97;4976651;28;45237;-43
2022/12/17 22:28:37;;;;;;;;;49.00;42.67;;;;;-1.92;69.23;102199.06;4977521;28;45542;-45
2022/12/17 22:33:49;;;;;;;;;60.67;45.00;;;;;-2.01;69.07;102205.34;4976903;28;45301;-51
2022/12/17 22:36:14;;;;;;;;;59.67;45.67;;;;;-2.00;69.35;102209.66;4977217;28;45519;-47
2022/12/17 22:38:40;;;;;;;;;58.67;43.33;;;;;-2.05;69.63;102195.84;4977302;28;45405;-48
2022/12/17 22:41:06;;;;;;;;;75.00;52.67;;;;;-2.05;69.39;102180.22;4976907;28;45316;-47
2022/12/17 22:43:33;;;;;;;;;65.67;51.00;;;;;-2.01;69.66;102187.09;4978209;28;45347;-47
2022/12/17 22:46:01;;;;;;;;;65.00;47.00;;;;;-1.99;69.58;102182.69;4995255;28;45346;-48
2022/12/17 22:48:28;;;;;;;;;56.67;42.00;;;;;-1.97;69.50;102188.75;4977469;28;45414;-46
2022/12/17 22:50:54;;;;;;;;;67.67;48.00;;;;;-1.94;69.33;102178.22;4976978;28;45384;-48
2022/12/17 22:53:20;;;;;;;;;69.67;51.00;;;;;-1.98;69.46;102168.78;4976781;28;45312;-43
2022/12/17 22:55:46;;;;;;;;;71.00;47.33;;;;;-1.98;69.20;102187.03;4976948;28;45375;-45
2022/12/17 22:58:11;;;;;;;;;62.67;43.67;;;;;-1.99;69.06;102192.25;4977101;28;45212;-45
2022/12/17 23:00:36;;;;;;;;;56.67;46.00;;;;;-2.04;69.07;102182.78;4976587;28;46220;-47
2022/12/17 23:03:02;;;;;;;;;61.67;45.00;;;;;-2.04;69.15;102184.53;4976784;28;45232;-46
2022/12/17 23:05:29;;;;;;;;;72.67;51.67;;;;;-2.07;69.48;102169.78;4976738;28;45522;-46
2022/12/17 23:07:55;;;;;;;;;55.33;47.00;;;;;-2.11;69.27;102157.69;4976751;28;45407;-46
2022/12/17 23:10:21;;;;;;;;;63.67;47.33;;;;;-2.12;69.78;102160.34;4976785;28;45304;-46
2022/12/17 23:12:49;;;;;;;;;67.00;49.00;;;;;-2.12;69.28;102160.34;4976469;28;45299;-47
2022/12/17 23:15:16;;;;;;;;;44.00;34.67;;;;;-2.15;69.44;102158.69;4978549;28;45232;-46
2022/12/17 23:17:41;;;;;;;;;65.33;50.00;;;;;-2.28;69.36;102137.19;4976814;28;45337;-48
2022/12/17 23:20:07;;;;;;;;;55.67;37.67;;;;;-2.24;69.64;102150.16;4976325;28;46033;-45
2022/12/17 23:22:33;;;;;;;;;68.00;49.33;;;;;-2.26;69.71;102147.59;4975305;28;45541;-47
2022/12/17 23:24:58;;;;;;;;;60.33;45.00;;;;;-2.22;69.67;102151.00;4976318;28;47274;-46
2022/12/17 23:27:24;;;;;;;;;52.67;42.00;;;;;-2.23;69.76;102144.94;4976921;28;45286;-45
2022/12/17 23:29:49;;;;;;;;;49.33;36.67;;;;;-2.22;69.58;102151.00;4976228;28;45351;-44
2022/12/17 23:32:14;;;;;;;;;62.67;48.00;;;;;-2.24;69.39;102152.78;4976166;28;45373;-44
2022/12/17 23:34:40;;;;;;;;;53.00;43.67;;;;;-2.28;69.22;102147.63;4976663;28;45306;-50
2022/12/17 23:37:05;;;;;;;;;57.67;38.00;;;;;-2.45;69.51;102121.03;4975820;28;45529;-48
2022/12/17 23:39:30;;;;;;;;;56.67;41.33;;;;;-2.31;69.03;102142.47;4976195;28;46129;-51
2022/12/17 23:41:56;;;;;;;;;56.33;41.33;;;;;-2.35;69.10;102145.19;4976239;28;45334;-45
2022/12/17 23:44:21;;;;;;;;;50.33;36.67;;;;;-2.33;69.34;102139.03;4975110;28;45347;-44
2022/12/17 23:46:47;;;;;;;;;46.00;34.33;;;;;-2.29;68.83;102153.72;4976417;28;45243;-45
2022/12/17 23:49:12;;;;;;;;;30.00;24.00;;;;;-2.26;69.06;102158.88;4976111;28;46179;-45
2022/12/17 23:51:37;;;;;;;;;43.67;34.67;;;;;-2.25;68.41;102151.91;4976147;28;45473;-47
2022/12/17 23:54:03;;;;;;;;;48.67;33.67;;;;;-2.26;68.29;102150.22;4976322;28;45318;-46
2022/12/17 23:56:28;;;;;;;;;51.33;34.67;;;;;-2.35;68.65;102139.97;4976290;28;45390;-49
2022/12/17 23:58:57;;;;;;;;;39.67;25.33;;;;;-2.29;68.56;102145.91;4977023;28;46367;-47
